Time;durP1;ratioP1;P1;durP2;ratioP2;P2;SDS_P1;SDS_P2;PMS_P1;PMS_P2;Temp;Humidity;BMP_temperature;BMP_pressure;BME280_temperature;BME280_humidity;BME280_pressure;Samples;Min_cycle;Max_cycle;Signal;HPM_P1;HPM_P2
2023/07/23 00:00:38;;;;;;;;;;;22.00;52.20;;;;;;5093650;28;19928;-53
2023/07/23 00:03:05;;;;;;;;;;;22.00;52.20;;;;;;5102326;28;19982;-52
2023/07/23 00:05:32;;;;;;;;;;;22.00;52.20;;;;;;5087788;28;19980;-52
2023/07/23 00:07:59;;;;;;;;;;;22.00;52.20;;;;;;5088984;28;20422;-52
2023/07/23 00:10:25;;;;;;;;;;;22.00;52.20;;;;;;5111333;28;19928;-53
2023/07/23 00:12:52;;;;;;;;;;;22.00;52.20;;;;;;5091750;28;19985;-53
2023/07/23 00:15:19;;;;;;;;;;;22.00;52.10;;;;;;5103859;28;20327;-56
2023/07/23 00:17:48;;;;;;;;;;;22.00;52.10;;;;;;5093305;28;20111;-54
2023/07/23 00:20:14;;;;;;;;;;;22.00;52.10;;;;;;5102982;28;19927;-53
2023/07/23 00:22:41;;;;;;;;;;;22.00;52.20;;;;;;5080400;28;19928;-54
2023/07/23 00:25:08;;;;;;;;;;;22.00;52.10;;;;;;5093826;28;19924;-52
2023/07/23 00:27:35;;;;;;;;;;;22.00;52.20;;;;;;5095130;28;19928;-56
2023/07/23 00:30:03;;;;;;;;;;;22.00;52.10;;;;;;5085368;28;19946;-53
2023/07/23 00:32:29;;;;;;;;;;;22.00;52.20;;;;;;5112321;28;19923;-55
2023/07/23 00:34:58;;;;;;;;;;;22.00;52.10;;;;;;5110983;28;19969;-55
2023/07/23 00:37:27;;;;;;;;;;;22.00;52.20;;;;;;5094509;28;19923;-54
2023/07/23 00:39:53;;;;;;;;;;;22.00;52.20;;;;;;5091950;28;19924;-53
2023/07/23 00:42:20;;;;;;;;;;;22.00;52.20;;;;;;5107796;28;19923;-55
2023/07/23 00:44:47;;;;;;;;;;;22.00;52.20;;;;;;5101125;28;20022;-54
2023/07/23 00:47:14;;;;;;;;;;;22.00;52.20;;;;;;5089051;28;19924;-55
2023/07/23 00:49:41;;;;;;;;;;;22.00;52.20;;;;;;5085976;28;19924;-56
2023/07/23 00:52:09;;;;;;;;;;;22.00;52.20;;;;;;5087356;28;19924;-54
2023/07/23 00:54:36;;;;;;;;;;;22.00;52.20;;;;;;5070374;28;19927;-53
2023/07/23 00:57:03;;;;;;;;;;;22.00;52.20;;;;;;5089009;28;19923;-54
2023/07/23 00:59:32;;;;;;;;;;;22.00;52.20;;;;;;5105085;28;19924;-52
2023/07/23 01:01:59;;;;;;;;;;;22.00;52.20;;;;;;5104667;28;20019;-53
2023/07/23 01:04:26;;;;;;;;;;;22.00;52.20;;;;;;5091547;28;19981;-50
2023/07/23 01:06:52;;;;;;;;;;;22.00;52.30;;;;;;5099913;28;19924;-54
2023/07/23 01:09:20;;;;;;;;;;;22.00;52.30;;;;;;5107866;28;19981;-54
2023/07/23 01:11:47;;;;;;;;;;;22.00;52.30;;;;;;5108287;28;20014;-54
2023/07/23 01:14:14;;;;;;;;;;;22.00;52.30;;;;;;5097415;28;19924;-53
2023/07/23 01:16:41;;;;;;;;;;;22.00;52.30;;;;;;5107301;28;19928;-53
2023/07/23 01:19:08;;;;;;;;;;;22.00;52.30;;;;;;5091042;28;19923;-53
2023/07/23 01:21:35;;;;;;;;;;;22.00;52.30;;;;;;5085554;28;19924;-52
2023/07/23 01:24:06;;;;;;;;;;;22.00;52.40;;;;;;5105503;28;20318;-52
2023/07/23 01:26:33;;;;;;;;;;;22.00;52.40;;;;;;5092065;28;19927;-52
2023/07/23 01:28:59;;;;;;;;;;;22.00;52.40;;;;;;5093031;28;19928;-55
2023/07/23 01:31:26;;;;;;;;;;;22.00;52.40;;;;;;5093183;28;19939;-55
2023/07/23 01:33:53;;;;;;;;;;;22.00;52.40;;;;;;5099253;28;19984;-52
2023/07/23 01:36:20;;;;;;;;;;;22.00;52.40;;;;;;5082471;28;19924;-51
2023/07/23 01:38:47;;;;;;;;;;;22.00;52.40;;;;;;5077173;28;20001;-49
2023/07/23 01:41:15;;;;;;;;;;;22.00;52.40;;;;;;5093927;28;19924;-52
2023/07/23 01:43:42;;;;;;;;;;;22.00;52.50;;;;;;5089013;28;19923;-53
2023/07/23 01:46:08;;;;;;;;;;;22.00;52.40;;;;;;5104635;28;20029;-54
2023/07/23 01:48:35;;;;;;;;;;;22.00;52.50;;;;;;5083114;28;20369;-54
2023/07/23 01:51:02;;;;;;;;;;;22.00;52.50;;;;;;5106880;28;19935;-54
2023/07/23 01:53:29;;;;;;;;;;;22.00;52.50;;;;;;5087646;28;19924;-54
2023/07/23 01:55:57;;;;;;;;;;;22.00;52.50;;;;;;5089045;28;19974;-52
2023/07/23 01:58:25;;;;;;;;;;;22.00;52.60;;;;;;5086939;28;19924;-54
2023/07/23 02:00:57;;;;;;;;;;;22.00;52.60;;;;;;5103467;28;19954;-55
2023/07/23 02:03:23;;;;;;;;;;;22.00;52.60;;;;;;5090852;28;19924;-55
2023/07/23 02:05:54;;;;;;;;;;;22.00;52.60;;;;;;5087784;28;19931;-54
2023/07/23 02:08:21;;;;;;;;;;;22.00;52.60;;;;;;5088295;28;19931;-56
2023/07/23 02:10:48;;;;;;;;;;;22.00;52.60;;;;;;5086493;28;19924;-55
2023/07/23 02:13:15;;;;;;;;;;;22.00;52.60;;;;;;5089326;28;19928;-55
2023/07/23 02:15:43;;;;;;;;;;;22.00;52.70;;;;;;5091010;28;19924;-55
2023/07/23 02:18:09;;;;;;;;;;;22.00;52.60;;;;;;5111274;28;19928;-54
2023/07/23 02:20:37;;;;;;;;;;;22.00;52.60;;;;;;5109672;28;19973;-54
2023/07/23 02:23:04;;;;;;;;;;;22.00;52.60;;;;;;5114089;28;19927;-54
2023/07/23 02:25:30;;;;;;;;;;;22.00;52.70;;;;;;5109841;28;19931;-55
2023/07/23 02:27:58;;;;;;;;;;;22.00;52.70;;;;;;5111782;28;20483;-53
2023/07/23 02:30:24;;;;;;;;;;;22.00;52.70;;;;;;5092866;28;19924;-55
2023/07/23 02:32:53;;;;;;;;;;;22.00;52.70;;;;;;5105064;28;19924;-52
2023/07/23 02:35:19;;;;;;;;;;;22.00;52.80;;;;;;5102632;28;19989;-51
2023/07/23 02:37:46;;;;;;;;;;;22.00;52.70;;;;;;5106249;28;19931;-55
2023/07/23 02:40:13;;;;;;;;;;;22.00;52.70;;;;;;5096924;28;19972;-55
2023/07/23 02:42:40;;;;;;;;;;;22.00;52.70;;;;;;5091886;28;19950;-55
2023/07/23 02:45:07;;;;;;;;;;;22.00;52.70;;;;;;5113150;28;19986;-51
2023/07/23 02:47:34;;;;;;;;;;;22.00;52.70;;;;;;5094419;27;19932;-54
2023/07/23 02:50:03;;;;;;;;;;;22.00;52.70;;;;;;5099482;28;19974;-54
2023/07/23 02:52:29;;;;;;;;;;;22.00;52.70;;;;;;5086443;28;19959;-54
2023/07/23 02:54:56;;;;;;;;;;;22.00;52.80;;;;;;5085416;28;19972;-54
2023/07/23 02:57:23;;;;;;;;;;;22.00;52.80;;;;;;5090132;28;20336;-52
2023/07/23 02:59:50;;;;;;;;;;;22.00;52.80;;;;;;5109348;28;19930;-50
2023/07/23 03:02:16;;;;;;;;;;;22.00;52.80;;;;;;5106962;28;20257;-52
2023/07/23 03:04:43;;;;;;;;;;;22.00;52.80;;;;;;5093503;28;19931;-54
2023/07/23 03:07:11;;;;;;;;;;;22.00;52.70;;;;;;5104539;28;19936;-54
2023/07/23 03:09:38;;;;;;;;;;;22.00;52.80;;;;;;5097192;28;19931;-52
2023/07/23 03:12:05;;;;;;;;;;;22.00;52.80;;;;;;5090721;28;19935;-54
2023/07/23 03:14:32;;;;;;;;;;;22.00;52.80;;;;;;5093077;28;19978;-54
2023/07/23 03:16:59;;;;;;;;;;;22.00;52.80;;;;;;5111472;28;19928;-54
2023/07/23 03:19:26;;;;;;;;;;;22.00;52.80;;;;;;5104977;28;19930;-54
2023/07/23 03:21:52;;;;;;;;;;;22.00;52.80;;;;;;5095923;28;19928;-55
2023/07/23 03:24:21;;;;;;;;;;;22.00;52.80;;;;;;5090508;28;20019;-55
2023/07/23 03:26:47;;;;;;;;;;;22.00;52.80;;;;;;5093395;28;19924;-54
2023/07/23 03:29:14;;;;;;;;;;;22.00;52.80;;;;;;5102562;28;19923;-54
2023/07/23 03:31:41;;;;;;;;;;;22.00;52.80;;;;;;5088574;28;19928;-53
2023/07/23 03:34:08;;;;;;;;;;;22.00;52.80;;;;;;5085067;28;19973;-52
2023/07/23 03:36:34;;;;;;;;;;;22.00;52.80;;;;;;5103910;28;19923;-54
2023/07/23 03:39:01;;;;;;;;;;;22.00;52.80;;;;;;5093454;28;19923;-55
2023/07/23 03:41:29;;;;;;;;;;;22.00;52.90;;;;;;5090062;28;19985;-53
2023/07/23 03:43:56;;;;;;;;;;;22.00;52.90;;;;;;5107343;28;19945;-54
2023/07/23 03:46:23;;;;;;;;;;;22.00;52.90;;;;;;5096614;28;19950;-54
2023/07/23 03:48:49;;;;;;;;;;;22.00;52.90;;;;;;5089370;28;19924;-55
2023/07/23 03:51:16;;;;;;;;;;;22.00;52.90;;;;;;5105989;28;19924;-55
2023/07/23 03:53:43;;;;;;;;;;;22.00;52.90;;;;;;5092293;28;20066;-54
2023/07/23 03:56:10;;;;;;;;;;;22.00;52.90;;;;;;5087315;28;19931;-53
2023/07/23 03:58:38;;;;;;;;;;;22.00;52.90;;;;;;5105645;28;19924;-53
2023/07/23 04:01:05;;;;;;;;;;;21.90;52.80;;;;;;5094134;28;19972;-52
2023/07/23 04:03:32;;;;;;;;;;;22.00;52.90;;;;;;5090016;28;19928;-54
2023/07/23 04:05:58;;;;;;;;;;;22.00;52.90;;;;;;5108272;28;20024;-55
2023/07/23 04:08:25;;;;;;;;;;;22.00;52.90;;;;;;5085061;28;19935;-55
2023/07/23 04:10:54;;;;;;;;;;;22.00;52.90;;;;;;5093670;28;19930;-53
2023/07/23 04:13:21;;;;;;;;;;;22.00;52.90;;;;;;5107597;28;19924;-53
2023/07/23 04:15:49;;;;;;;;;;;22.00;52.90;;;;;;5091796;28;19969;-55
2023/07/23 04:18:17;;;;;;;;;;;22.00;52.90;;;;;;5099693;28;19957;-53
2023/07/23 04:20:44;;;;;;;;;;;22.00;52.90;;;;;;5106387;28;19930;-54
2023/07/23 04:23:10;;;;;;;;;;;21.90;52.90;;;;;;5092360;28;19962;-52
2023/07/23 04:25:37;;;;;;;;;;;22.00;53.00;;;;;;5094595;28;19975;-53
2023/07/23 04:28:04;;;;;;;;;;;22.00;53.00;;;;;;5092764;28;19928;-54
2023/07/23 04:30:32;;;;;;;;;;;21.90;52.90;;;;;;5095565;28;19927;-55
2023/07/23 04:33:00;;;;;;;;;;;21.90;52.90;;;;;;5094878;28;20270;-51
2023/07/23 04:35:27;;;;;;;;;;;21.90;52.90;;;;;;5095432;28;19977;-53
2023/07/23 04:37:54;;;;;;;;;;;21.90;52.90;;;;;;5079487;28;19924;-49
2023/07/23 04:40:21;;;;;;;;;;;21.90;52.90;;;;;;5088134;28;19932;-52
2023/07/23 04:42:48;;;;;;;;;;;22.00;53.00;;;;;;5087984;28;19931;-55
2023/07/23 04:45:15;;;;;;;;;;;21.90;53.00;;;;;;5091662;28;19924;-56
2023/07/23 04:47:42;;;;;;;;;;;21.90;53.00;;;;;;5108658;28;19939;-53
2023/07/23 04:50:10;;;;;;;;;;;22.00;53.10;;;;;;5092510;28;19959;-53
2023/07/23 04:52:37;;;;;;;;;;;21.90;53.00;;;;;;5090774;28;19924;-53
2023/07/23 04:55:04;;;;;;;;;;;21.90;53.00;;;;;;5108820;28;19950;-55
2023/07/23 04:57:31;;;;;;;;;;;21.90;53.00;;;;;;5093127;28;19969;-54
2023/07/23 04:59:57;;;;;;;;;;;21.90;53.00;;;;;;5101787;28;19931;-50
2023/07/23 05:02:24;;;;;;;;;;;21.90;53.10;;;;;;5090893;28;19989;-55
2023/07/23 05:04:51;;;;;;;;;;;21.90;53.10;;;;;;5108653;28;19984;-51
2023/07/23 05:07:19;;;;;;;;;;;21.90;53.10;;;;;;5093912;28;19923;-53
2023/07/23 05:09:46;;;;;;;;;;;21.90;53.10;;;;;;5094975;28;19924;-54
2023/07/23 05:12:13;;;;;;;;;;;21.90;53.20;;;;;;5091435;28;20572;-53
2023/07/23 05:14:40;;;;;;;;;;;21.90;53.20;;;;;;5066223;28;19932;-54
2023/07/23 05:17:07;;;;;;;;;;;21.90;53.20;;;;;;5087604;28;19928;-55
2023/07/23 05:19:34;;;;;;;;;;;21.90;53.20;;;;;;5095098;28;19928;-53
2023/07/23 05:22:00;;;;;;;;;;;21.90;53.30;;;;;;5103333;28;19924;-52
2023/07/23 05:24:28;;;;;;;;;;;21.90;53.30;;;;;;5094706;28;19924;-52
2023/07/23 05:26:55;;;;;;;;;;;21.90;53.30;;;;;;5088154;28;19927;-52
2023/07/23 05:29:22;;;;;;;;;;;21.90;53.40;;;;;;5088950;28;19986;-52
2023/07/23 05:31:49;;;;;;;;;;;21.90;53.40;;;;;;5107441;28;19924;-52
2023/07/23 05:34:17;;;;;;;;;;;21.90;53.40;;;;;;5103903;28;19947;-53
2023/07/23 05:36:44;;;;;;;;;;;21.90;53.50;;;;;;5087979;28;19931;-53
2023/07/23 05:39:11;;;;;;;;;;;21.90;53.40;;;;;;5104622;28;19954;-55
2023/07/23 05:41:39;;;;;;;;;;;21.90;53.50;;;;;;5091558;28;19990;-51
2023/07/23 05:44:05;;;;;;;;;;;21.90;53.50;;;;;;5091328;28;19973;-55
2023/07/23 05:46:32;;;;;;;;;;;21.90;53.50;;;;;;5100510;28;19924;-50
2023/07/23 05:48:59;;;;;;;;;;;21.90;53.50;;;;;;5088429;28;19939;-53
2023/07/23 05:51:26;;;;;;;;;;;21.90;53.50;;;;;;5106979;28;19924;-55
2023/07/23 05:53:53;;;;;;;;;;;21.90;53.50;;;;;;5088749;28;19925;-54
2023/07/23 05:56:19;;;;;;;;;;;21.90;53.50;;;;;;5084807;28;19927;-55
2023/07/23 05:58:48;;;;;;;;;;;21.90;53.50;;;;;;5104383;28;19967;-55
2023/07/23 06:01:14;;;;;;;;;;;21.90;53.60;;;;;;5088827;28;19928;-55
2023/07/23 06:03:41;;;;;;;;;;;21.90;53.50;;;;;;5087729;28;19920;-52
2023/07/23 06:06:08;;;;;;;;;;;21.90;53.50;;;;;;5098960;28;19932;-54
2023/07/23 06:08:35;;;;;;;;;;;21.90;53.60;;;;;;5089852;28;19924;-53
2023/07/23 06:11:01;;;;;;;;;;;21.90;53.60;;;;;;5108628;28;19978;-54
2023/07/23 06:13:28;;;;;;;;;;;21.90;53.60;;;;;;5087951;28;19924;-53
2023/07/23 06:15:56;;;;;;;;;;;21.90;53.60;;;;;;5087108;28;19954;-55
2023/07/23 06:18:23;;;;;;;;;;;21.90;53.70;;;;;;5086705;28;19958;-54
2023/07/23 06:20:50;;;;;;;;;;;21.90;53.70;;;;;;5083801;28;19963;-53
2023/07/23 06:23:17;;;;;;;;;;;21.90;53.70;;;;;;5102744;28;19924;-54
2023/07/23 06:25:43;;;;;;;;;;;21.90;53.70;;;;;;5084258;28;20361;-54
2023/07/23 06:28:10;;;;;;;;;;;21.90;53.70;;;;;;5104698;28;19928;-52
2023/07/23 06:30:37;;;;;;;;;;;21.90;53.70;;;;;;5105639;28;19936;-52
2023/07/23 06:33:05;;;;;;;;;;;21.90;53.70;;;;;;5105035;28;19927;-54
2023/07/23 06:35:37;;;;;;;;;;;21.90;53.70;;;;;;5089788;28;19924;-54
2023/07/23 06:38:04;;;;;;;;;;;21.90;53.70;;;;;;5084611;28;19971;-55
2023/07/23 06:40:30;;;;;;;;;;;21.90;53.70;;;;;;5105363;28;19973;-54
2023/07/23 06:42:57;;;;;;;;;;;21.90;53.70;;;;;;5103779;28;19924;-53
2023/07/23 06:45:24;;;;;;;;;;;21.90;53.70;;;;;;5091186;28;19960;-50
2023/07/23 06:47:50;;;;;;;;;;;21.90;53.70;;;;;;5089995;28;19976;-54
2023/07/23 06:50:19;;;;;;;;;;;21.90;53.70;;;;;;5097389;28;20580;-53
2023/07/23 06:52:45;;;;;;;;;;;21.90;53.70;;;;;;5087685;28;20024;-54
2023/07/23 06:55:12;;;;;;;;;;;21.90;53.70;;;;;;5088353;28;19977;-53
2023/07/23 06:57:39;;;;;;;;;;;21.90;53.70;;;;;;5100644;28;19981;-53
2023/07/23 07:00:09;;;;;;;;;;;21.90;53.70;;;;;;5085029;28;19924;-51
2023/07/23 07:02:35;;;;;;;;;;;21.90;53.70;;;;;;5103535;28;19931;-52
2023/07/23 07:05:02;;;;;;;;;;;21.90;53.70;;;;;;5090546;28;19973;-52
2023/07/23 07:07:30;;;;;;;;;;;21.90;53.80;;;;;;5087656;28;19931;-54
2023/07/23 07:09:57;;;;;;;;;;;21.90;53.80;;;;;;5096150;28;19924;-51
2023/07/23 07:12:25;;;;;;;;;;;21.90;53.80;;;;;;5107481;28;19953;-53
2023/07/23 07:14:51;;;;;;;;;;;21.90;53.80;;;;;;5102602;28;19969;-49
2023/07/23 07:17:18;;;;;;;;;;;21.90;53.80;;;;;;5088098;28;19943;-53
2023/07/23 07:19:45;;;;;;;;;;;21.90;53.70;;;;;;5083659;28;19931;-50
2023/07/23 07:22:12;;;;;;;;;;;21.90;53.80;;;;;;5098258;28;19938;-54
2023/07/23 07:24:40;;;;;;;;;;;22.00;53.90;;;;;;5106134;28;19932;-53
2023/07/23 07:27:09;;;;;;;;;;;21.90;53.80;;;;;;5087968;28;19932;-53
2023/07/23 07:29:36;;;;;;;;;;;22.00;54.00;;;;;;5104935;28;20018;-52
2023/07/23 07:32:03;;;;;;;;;;;22.00;54.00;;;;;;5088528;28;19927;-53
2023/07/23 07:34:30;;;;;;;;;;;21.90;53.90;;;;;;5089435;28;19924;-55
2023/07/23 07:36:56;;;;;;;;;;;22.00;54.10;;;;;;5102040;28;19924;-51
2023/07/23 07:39:23;;;;;;;;;;;21.90;53.90;;;;;;5091680;28;19923;-52
2023/07/23 07:41:53;;;;;;;;;;;22.00;54.10;;;;;;5103312;28;19928;-53
2023/07/23 07:44:20;;;;;;;;;;;21.90;54.00;;;;;;5105628;28;19981;-52
2023/07/23 07:46:46;;;;;;;;;;;22.00;54.10;;;;;;5090226;28;19980;-54
2023/07/23 07:49:13;;;;;;;;;;;21.90;54.00;;;;;;5087005;28;20082;-52
2023/07/23 07:51:43;;;;;;;;;;;22.00;54.10;;;;;;5085834;28;19924;-52
2023/07/23 07:54:10;;;;;;;;;;;22.00;54.10;;;;;;5087634;28;19932;-50
2023/07/23 07:56:37;;;;;;;;;;;22.00;54.10;;;;;;5108563;28;19959;-51
2023/07/23 07:59:05;;;;;;;;;;;22.00;54.20;;;;;;5109349;28;19924;-50
2023/07/23 08:01:32;;;;;;;;;;;22.00;54.20;;;;;;5092820;28;19959;-49
2023/07/23 08:04:01;;;;;;;;;;;22.00;54.20;;;;;;5087208;28;20198;-49
2023/07/23 08:06:28;;;;;;;;;;;22.00;54.20;;;;;;5107141;28;19924;-53
2023/07/23 08:08:55;;;;;;;;;;;22.00;54.20;;;;;;5102541;28;19924;-51
2023/07/23 08:11:21;;;;;;;;;;;22.00;54.20;;;;;;5084425;28;19969;-49
2023/07/23 08:13:48;;;;;;;;;;;22.00;54.20;;;;;;5105053;28;19931;-51
2023/07/23 08:16:16;;;;;;;;;;;22.00;54.30;;;;;;5087473;28;19924;-50
2023/07/23 08:18:44;;;;;;;;;;;22.00;54.40;;;;;;5101117;28;19930;-52
2023/07/23 08:21:11;;;;;;;;;;;22.00;54.30;;;;;;5086225;28;19924;-53
2023/07/23 08:23:38;;;;;;;;;;;22.00;54.40;;;;;;5104684;28;19977;-55
2023/07/23 08:26:05;;;;;;;;;;;22.00;54.40;;;;;;5105677;28;19939;-52
2023/07/23 08:28:34;;;;;;;;;;;22.00;54.40;;;;;;5090088;28;19927;-51
2023/07/23 08:31:01;;;;;;;;;;;22.00;54.50;;;;;;5111936;28;19928;-54
2023/07/23 08:33:29;;;;;;;;;;;22.00;54.40;;;;;;5095049;28;19921;-51
2023/07/23 08:35:56;;;;;;;;;;;22.00;54.50;;;;;;5103618;27;19924;-53
2023/07/23 08:38:24;;;;;;;;;;;22.00;54.40;;;;;;5097794;28;19920;-52
2023/07/23 08:40:55;;;;;;;;;;;22.00;54.40;;;;;;5100120;28;19923;-50
2023/07/23 08:43:56;;;;;;;;;;;22.00;54.30;;;;;;5085757;28;19923;-49
2023/07/23 08:46:23;;;;;;;;;;;22.00;54.20;;;;;;5029871;28;19920;-51
2023/07/23 08:49:09;;;;;;;;;;;22.00;54.20;;;;;;5026215;28;19924;-49
2023/07/23 08:51:40;;;;;;;;;;;22.00;54.20;;;;;;5065742;28;19923;-53
2023/07/23 08:54:07;;;;;;;;;;;22.00;54.20;;;;;;5110158;28;20000;-50
2023/07/23 08:56:34;;;;;;;;;;;22.00;54.20;;;;;;5106227;28;19957;-51
2023/07/23 08:59:01;;;;;;;;;;;22.10;54.90;;;;;;5089447;28;19935;-51
2023/07/23 09:01:28;;;;;;;;;;;22.00;54.20;;;;;;5089017;28;19923;-54
2023/07/23 09:03:55;;;;;;;;;;;22.00;54.20;;;;;;5102700;28;19928;-54
2023/07/23 09:06:22;;;;;;;;;;;22.00;54.20;;;;;;5094235;28;19938;-53
2023/07/23 09:08:50;;;;;;;;;;;22.10;54.30;;;;;;5106694;28;19923;-53
2023/07/23 09:11:16;;;;;;;;;;;22.10;54.30;;;;;;5107945;28;19931;-54
2023/07/23 09:13:43;;;;;;;;;;;22.10;54.40;;;;;;5088711;28;19934;-52
2023/07/23 09:16:10;;;;;;;;;;;22.10;54.30;;;;;;5101431;28;20318;-54
2023/07/23 09:18:39;;;;;;;;;;;22.10;54.30;;;;;;5093987;28;19931;-51
2023/07/23 09:21:06;;;;;;;;;;;22.10;54.40;;;;;;5094458;28;19937;-52
2023/07/23 09:23:33;;;;;;;;;;;22.10;54.40;;;;;;5108621;28;19928;-52
2023/07/23 09:26:01;;;;;;;;;;;22.10;54.30;;;;;;5089695;28;19924;-53
2023/07/23 09:28:28;;;;;;;;;;;22.10;54.30;;;;;;5090972;28;19924;-56
2023/07/23 09:30:55;;;;;;;;;;;22.10;54.20;;;;;;5107675;28;20015;-52
2023/07/23 09:33:22;;;;;;;;;;;22.10;54.30;;;;;;5090107;28;19924;-57
2023/07/23 09:35:48;;;;;;;;;;;22.10;54.80;;;;;;5093095;28;19924;-57
2023/07/23 09:38:15;;;;;;;;;;;22.10;56.90;;;;;;5107948;28;19920;-55
2023/07/23 09:40:42;;;;;;;;;;;22.10;57.40;;;;;;5079240;28;19928;-56
2023/07/23 09:43:10;;;;;;;;;;;22.10;57.70;;;;;;5066826;28;19973;-56
2023/07/23 09:45:37;;;;;;;;;;;22.10;58.20;;;;;;5090655;28;19924;-56
2023/07/23 09:48:04;;;;;;;;;;;22.10;58.50;;;;;;5087244;28;19924;-57
2023/07/23 09:50:31;;;;;;;;;;;22.10;58.50;;;;;;5076664;28;19927;-58
2023/07/23 09:52:57;;;;;;;;;;;22.10;58.70;;;;;;5104168;28;19924;-58
2023/07/23 09:55:24;;;;;;;;;;;22.10;58.50;;;;;;5100237;28;19931;-58
2023/07/23 09:57:51;;;;;;;;;;;22.10;58.50;;;;;;5089245;28;19932;-57
2023/07/23 10:00:19;;;;;;;;;;;22.00;58.60;;;;;;5096687;28;19924;-57
2023/07/23 10:02:48;;;;;;;;;;;22.00;58.90;;;;;;5087522;28;19928;-56
2023/07/23 10:05:15;;;;;;;;;;;22.00;58.70;;;;;;5099876;28;19935;-56
2023/07/23 10:07:42;;;;;;;;;;;22.00;59.20;;;;;;5085036;28;19924;-58
2023/07/23 10:10:09;;;;;;;;;;;22.00;59.50;;;;;;5087946;28;20404;-56
2023/07/23 10:12:37;;;;;;;;;;;22.00;59.70;;;;;;5089931;28;19924;-57
2023/07/23 10:15:04;;;;;;;;;;;22.00;59.80;;;;;;5098143;28;19932;-57
2023/07/23 10:17:32;;;;;;;;;;;21.90;59.70;;;;;;5090853;28;19924;-57
2023/07/23 10:19:58;;;;;;;;;;;21.90;59.60;;;;;;5106278;28;19923;-57
2023/07/23 10:22:25;;;;;;;;;;;21.90;59.70;;;;;;5104412;28;19924;-56
2023/07/23 10:24:52;;;;;;;;;;;21.90;60.00;;;;;;5079664;28;20015;-57
2023/07/23 10:27:19;;;;;;;;;;;21.90;60.00;;;;;;5082358;28;19963;-56
2023/07/23 10:30:00;;;;;;;;;;;21.90;60.10;;;;;;5104284;28;19964;-56
2023/07/23 10:32:27;;;;;;;;;;;21.90;60.30;;;;;;5062300;28;19973;-56
2023/07/23 10:34:55;;;;;;;;;;;21.90;60.20;;;;;;5085631;28;19928;-56
2023/07/23 10:37:22;;;;;;;;;;;21.90;60.20;;;;;;5090943;28;19937;-57
2023/07/23 10:39:49;;;;;;;;;;;21.90;60.40;;;;;;5081007;28;20023;-56
2023/07/23 10:42:36;;;;;;;;;;;21.80;60.50;;;;;;5109471;28;19928;-57
2023/07/23 10:45:16;;;;;;;;;;;21.80;60.80;;;;;;5108608;28;19989;-57
2023/07/23 10:47:47;;;;;;;;;;;21.80;60.60;;;;;;5090384;28;20019;-57
2023/07/23 10:50:15;;;;;;;;;;;21.80;60.70;;;;;;5091927;28;19928;-57
2023/07/23 10:52:44;;;;;;;;;;;21.80;61.20;;;;;;5099854;28;19977;-56
2023/07/23 10:55:10;;;;;;;;;;;21.80;61.50;;;;;;5078653;28;19924;-56
2023/07/23 10:57:38;;;;;;;;;;;21.80;61.50;;;;;;5103136;28;19924;-56
2023/07/23 11:00:09;;;;;;;;;;;21.80;61.60;;;;;;5100250;28;19924;-55
2023/07/23 11:02:36;;;;;;;;;;;21.80;62.00;;;;;;5110425;28;19927;-56
2023/07/23 11:05:03;;;;;;;;;;;21.80;61.80;;;;;;5091424;28;19924;-57
2023/07/23 11:07:31;;;;;;;;;;;21.80;62.00;;;;;;5111691;28;19977;-57
2023/07/23 11:09:58;;;;;;;;;;;21.80;62.00;;;;;;5084721;28;19959;-57
2023/07/23 11:12:25;;;;;;;;;;;21.80;62.00;;;;;;5089127;28;19927;-57
2023/07/23 11:14:52;;;;;;;;;;;21.80;62.00;;;;;;5095369;28;19923;-56
2023/07/23 11:17:19;;;;;;;;;;;21.80;61.80;;;;;;5103842;28;19924;-56
2023/07/23 11:19:45;;;;;;;;;;;21.80;61.80;;;;;;5089466;28;19924;-57
2023/07/23 11:22:13;;;;;;;;;;;21.80;61.60;;;;;;5086412;28;19984;-57
2023/07/23 11:24:41;;;;;;;;;;;21.80;61.50;;;;;;5085352;28;19996;-57
2023/07/23 11:27:09;;;;;;;;;;;21.80;61.20;;;;;;5100119;28;19924;-56
2023/07/23 11:29:36;;;;;;;;;;;21.80;60.80;;;;;;5106002;28;19924;-57
2023/07/23 11:32:03;;;;;;;;;;;21.70;60.60;;;;;;5103443;28;19928;-56
2023/07/23 11:34:30;;;;;;;;;;;21.70;60.60;;;;;;5104544;28;19924;-55
2023/07/23 11:36:57;;;;;;;;;;;21.70;60.40;;;;;;5105039;28;19931;-57
2023/07/23 11:39:24;;;;;;;;;;;21.70;60.30;;;;;;5088584;28;19920;-57
2023/07/23 11:41:53;;;;;;;;;;;21.70;60.20;;;;;;5108974;28;19928;-57
2023/07/23 11:44:19;;;;;;;;;;;21.70;60.20;;;;;;5086743;28;19973;-57
2023/07/23 11:46:46;;;;;;;;;;;21.70;60.30;;;;;;5085611;28;19931;-57
2023/07/23 11:49:13;;;;;;;;;;;21.70;60.30;;;;;;5090988;28;19973;-57
2023/07/23 11:51:40;;;;;;;;;;;21.70;60.50;;;;;;5106927;28;19939;-57
2023/07/23 11:54:08;;;;;;;;;;;21.70;60.70;;;;;;5088325;28;19931;-54
2023/07/23 11:56:35;;;;;;;;;;;21.70;60.80;;;;;;5094160;28;20349;-57
2023/07/23 11:59:04;;;;;;;;;;;21.70;61.20;;;;;;5087227;28;19927;-57
2023/07/23 12:01:30;;;;;;;;;;;21.70;61.50;;;;;;5085633;28;19927;-56
2023/07/23 12:03:58;;;;;;;;;;;21.70;61.70;;;;;;5092031;28;19924;-55
2023/07/23 12:06:25;;;;;;;;;;;21.70;62.10;;;;;;5103343;28;19931;-56
2023/07/23 12:08:52;;;;;;;;;;;21.70;62.00;;;;;;5106709;28;19924;-57
2023/07/23 12:11:19;;;;;;;;;;;21.70;62.00;;;;;;5088863;28;19935;-57
2023/07/23 12:13:46;;;;;;;;;;;21.70;61.80;;;;;;5086411;28;19932;-57
2023/07/23 12:16:15;;;;;;;;;;;21.70;61.90;;;;;;5103978;28;19924;-57
2023/07/23 12:18:45;;;;;;;;;;;21.70;62.00;;;;;;5086710;28;19972;-58
2023/07/23 12:21:16;;;;;;;;;;;21.70;62.00;;;;;;5104980;28;19953;-58
2023/07/23 12:23:42;;;;;;;;;;;21.70;62.10;;;;;;5099270;28;19928;-58
2023/07/23 12:26:10;;;;;;;;;;;21.70;62.20;;;;;;5089368;28;19990;-58
2023/07/23 12:28:36;;;;;;;;;;;21.70;62.10;;;;;;5106242;28;20387;-57
2023/07/23 12:31:03;;;;;;;;;;;21.60;61.90;;;;;;5088111;28;19924;-57
2023/07/23 12:33:31;;;;;;;;;;;21.60;61.80;;;;;;5087036;28;19930;-58
2023/07/23 12:35:58;;;;;;;;;;;21.60;61.70;;;;;;5088055;28;20000;-57
2023/07/23 12:38:25;;;;;;;;;;;21.60;62.30;;;;;;5087515;28;19924;-58
2023/07/23 12:40:52;;;;;;;;;;;21.60;61.60;;;;;;5105855;28;19924;-59
2023/07/23 12:43:18;;;;;;;;;;;21.60;61.80;;;;;;5105618;28;19935;-58
2023/07/23 12:45:45;;;;;;;;;;;21.60;61.90;;;;;;5081527;28;19935;-58
2023/07/23 12:48:12;;;;;;;;;;;21.60;61.80;;;;;;5084552;28;20060;-51
2023/07/23 12:50:40;;;;;;;;;;;21.60;61.60;;;;;;5088817;28;19923;-58
2023/07/23 12:53:07;;;;;;;;;;;21.60;61.70;;;;;;5085278;28;19928;-55
2023/07/23 12:55:33;;;;;;;;;;;21.60;61.70;;;;;;5104595;28;19932;-57
2023/07/23 12:58:00;;;;;;;;;;;21.60;61.90;;;;;;5084766;28;20380;-56
2023/07/23 13:00:27;;;;;;;;;;;21.60;62.10;;;;;;5100011;28;19923;-56
2023/07/23 13:02:54;;;;;;;;;;;21.60;62.20;;;;;;5087556;28;19924;-59
2023/07/23 13:05:22;;;;;;;;;;;21.60;62.10;;;;;;5075813;28;19924;-57
2023/07/23 13:07:50;;;;;;;;;;;21.60;62.00;;;;;;5087276;28;19935;-57
2023/07/23 13:10:17;;;;;;;;;;;21.60;61.90;;;;;;5086755;28;19927;-58
2023/07/23 13:12:43;;;;;;;;;;;21.60;61.90;;;;;;5098399;28;19957;-59
2023/07/23 13:15:10;;;;;;;;;;;21.60;61.90;;;;;;5084066;28;19977;-60
2023/07/23 13:17:37;;;;;;;;;;;21.60;61.90;;;;;;5103194;27;19932;-59
2023/07/23 13:20:05;;;;;;;;;;;21.60;61.80;;;;;;5077871;28;19932;-58
2023/07/23 13:22:32;;;;;;;;;;;21.60;61.90;;;;;;5084157;28;19924;-58
2023/07/23 13:25:01;;;;;;;;;;;21.60;61.70;;;;;;5092813;28;19985;-58
2023/07/23 13:27:27;;;;;;;;;;;21.60;61.80;;;;;;5110327;28;19939;-58
2023/07/23 13:29:54;;;;;;;;;;;21.60;61.70;;;;;;5107622;28;19924;-58
2023/07/23 13:32:21;;;;;;;;;;;21.60;61.60;;;;;;5108997;28;19926;-58
2023/07/23 13:34:48;;;;;;;;;;;21.60;61.50;;;;;;5109307;28;19936;-57
2023/07/23 13:37:15;;;;;;;;;;;21.60;61.50;;;;;;5101424;28;19924;-57
2023/07/23 13:39:41;;;;;;;;;;;21.60;61.60;;;;;;5084092;28;19932;-56
2023/07/23 13:42:09;;;;;;;;;;;21.60;61.60;;;;;;5089633;28;19927;-48
2023/07/23 13:44:36;;;;;;;;;;;21.70;61.60;;;;;;5098943;28;19978;-47
2023/07/23 13:47:03;;;;;;;;;;;21.60;61.30;;;;;;5103857;28;19924;-51
2023/07/23 13:49:30;;;;;;;;;;;21.70;61.20;;;;;;5098475;28;19932;-51
2023/07/23 13:51:57;;;;;;;;;;;21.60;60.80;;;;;;5105396;28;19955;-56
2023/07/23 13:54:23;;;;;;;;;;;21.70;60.80;;;;;;5091224;28;20359;-51
2023/07/23 13:56:50;;;;;;;;;;;21.70;60.80;;;;;;5102442;28;19931;-57
2023/07/23 13:59:19;;;;;;;;;;;21.70;60.80;;;;;;5100361;28;19938;-56
2023/07/23 14:01:45;;;;;;;;;;;21.70;60.70;;;;;;5099459;28;19925;-57
2023/07/23 14:04:12;;;;;;;;;;;21.70;60.70;;;;;;5081325;28;19928;-58
2023/07/23 14:06:39;;;;;;;;;;;21.70;60.80;;;;;;5099544;28;20301;-58
2023/07/23 14:09:06;;;;;;;;;;;21.70;60.70;;;;;;5079261;28;19977;-57
2023/07/23 14:11:33;;;;;;;;;;;21.70;60.70;;;;;;5091652;28;19924;-58
2023/07/23 14:13:59;;;;;;;;;;;21.70;60.70;;;;;;5092528;28;19927;-57
2023/07/23 14:16:27;;;;;;;;;;;21.70;60.70;;;;;;5113071;28;19923;-57